Time;durP1;ratioP1;P1;durP2;ratioP2;P2;SDS_P1;SDS_P2;PMS_P1;PMS_P2;Temp;Humidity;BMP_temperature;BMP_pressure;BME280_temperature;BME280_humidity;BME280_pressure;Samples;Min_cycle;Max_cycle;Signal;HPM_P1;HPM_P2
2023/12/10 00:00:06;;;;;;;0.77;0.77;;;6.30;99.90;;;;;;5060279;28;20193;-85
2023/12/10 00:02:33;;;;;;;0.80;0.80;;;6.30;99.90;;;;;;5059806;28;20260;-86
2023/12/10 00:05:00;;;;;;;0.87;0.80;;;6.20;99.90;;;;;;5061933;28;20202;-86
2023/12/10 00:07:28;;;;;;;0.80;0.80;;;6.20;99.90;;;;;;5059994;28;20222;-85
2023/12/10 00:09:55;;;;;;;0.80;0.80;;;6.20;99.90;;;;;;5062839;28;20196;-85
2023/12/10 00:12:22;;;;;;;0.77;0.77;;;6.30;99.90;;;;;;5061463;28;20561;-85
2023/12/10 00:14:53;;;;;;;1.00;1.00;;;6.40;99.90;;;;;;5059564;28;20225;-86
2023/12/10 00:17:20;;;;;;;1.20;1.07;;;6.30;99.90;;;;;;5057583;28;20198;-87
2023/12/10 00:19:47;;;;;;;0.70;0.70;;;6.30;99.90;;;;;;5052793;28;20619;-85
2023/12/10 00:22:14;;;;;;;0.80;0.80;;;6.30;99.90;;;;;;5056630;28;20202;-85
2023/12/10 00:24:43;;;;;;;0.90;0.90;;;6.30;99.90;;;;;;5065207;28;20194;-87
2023/12/10 00:27:10;;;;;;;0.82;0.73;;;6.30;99.90;;;;;;5063164;28;20225;-87
2023/12/10 00:29:37;;;;;;;1.33;1.10;;;6.30;99.90;;;;;;5065440;28;20201;-87
2023/12/10 00:32:03;;;;;;;1.00;0.90;;;6.40;99.90;;;;;;5066028;28;20202;-86
2023/12/10 00:34:30;;;;;;;0.70;0.63;;;6.30;99.90;;;;;;5047952;28;20197;-87
2023/12/10 00:36:57;;;;;;;0.93;0.93;;;6.30;99.90;;;;;;5061421;28;20198;-87
2023/12/10 00:39:24;;;;;;;0.83;0.60;;;6.40;99.90;;;;;;5045077;28;20200;-87
2023/12/10 00:41:52;;;;;;;1.03;0.80;;;6.40;99.90;;;;;;5067949;28;20201;-87
2023/12/10 00:44:19;;;;;;;0.70;0.70;;;6.50;99.90;;;;;;5064252;28;20213;-87
2023/12/10 00:46:46;;;;;;;0.83;0.70;;;6.50;99.90;;;;;;5064882;28;20197;-87
2023/12/10 00:49:12;;;;;;;0.70;0.70;;;6.40;99.90;;;;;;5062863;28;20198;-86
2023/12/10 00:51:39;;;;;;;0.90;0.90;;;6.40;99.90;;;;;;5061777;28;20198;-84
2023/12/10 00:54:06;;;;;;;0.83;0.83;;;6.60;99.90;;;;;;5063877;28;20202;-84
2023/12/10 00:56:33;;;;;;;0.93;0.77;;;6.50;99.90;;;;;;5066119;28;20201;-86
2023/12/10 00:59:01;;;;;;;0.60;0.60;;;6.50;99.90;;;;;;5067329;28;20198;-86
2023/12/10 01:01:28;;;;;;;1.27;0.90;;;6.50;99.90;;;;;;5040443;28;20197;-86
2023/12/10 01:03:55;;;;;;;0.73;0.73;;;6.50;99.90;;;;;;5068245;28;20207;-86
2023/12/10 01:06:22;;;;;;;0.80;0.80;;;6.60;99.90;;;;;;5030386;28;20202;-86
2023/12/10 01:08:49;;;;;;;0.80;0.80;;;6.60;99.90;;;;;;5058781;28;20231;-86
2023/12/10 01:11:16;;;;;;;1.23;0.80;;;6.60;99.90;;;;;;5070049;28;20201;-86
2023/12/10 01:13:42;;;;;;;0.93;0.93;;;6.60;99.90;;;;;;5044529;28;20232;-86
2023/12/10 01:16:16;;;;;;;1.13;0.73;;;6.60;99.90;;;;;;5056492;28;20205;-86
2023/12/10 01:18:43;;;;;;;1.60;0.80;;;6.60;99.90;;;;;;5059907;28;20194;-87
2023/12/10 01:21:10;;;;;;;2.47;0.97;;;6.60;99.90;;;;;;5058385;28;20288;-87
2023/12/10 01:23:38;;;;;;;0.93;0.83;;;6.60;99.90;;;;;;5066180;28;20194;-84
2023/12/10 01:26:06;;;;;;;1.77;0.90;;;6.70;99.90;;;;;;5060577;28;20203;-86
2023/12/10 01:28:33;;;;;;;0.80;0.80;;;6.70;99.90;;;;;;5064032;28;20209;-86
2023/12/10 01:31:00;;;;;;;1.97;0.87;;;6.70;99.90;;;;;;5047013;28;20232;-85
2023/12/10 01:33:28;;;;;;;0.70;0.70;;;6.60;99.90;;;;;;5060234;28;20198;-85
2023/12/10 01:35:54;;;;;;;2.27;0.90;;;6.70;99.90;;;;;;5066249;28;20942;-87
2023/12/10 01:38:22;;;;;;;1.03;0.83;;;6.70;99.90;;;;;;5059831;28;20198;-86
2023/12/10 01:40:49;;;;;;;2.17;0.93;;;6.70;99.90;;;;;;5061445;28;20209;-87
2023/12/10 01:43:17;;;;;;;1.40;1.00;;;6.70;99.90;;;;;;5056660;28;20565;-87
2023/12/10 01:45:48;;;;;;;1.00;0.90;;;6.70;99.90;;;;;;5058660;28;20205;-86
2023/12/10 01:48:16;;;;;;;0.97;0.80;;;6.70;99.90;;;;;;5065768;28;20780;-86
2023/12/10 01:50:45;;;;;;;1.30;0.93;;;6.70;99.90;;;;;;5063266;28;20244;-86
2023/12/10 01:53:12;;;;;;;2.30;1.07;;;6.80;99.90;;;;;;5061546;28;20262;-84
2023/12/10 01:55:39;;;;;;;2.40;1.00;;;6.80;99.90;;;;;;5044708;28;20202;-85
2023/12/10 01:58:06;;;;;;;1.43;0.80;;;6.70;99.90;;;;;;5060739;28;20554;-86
2023/12/10 02:00:33;;;;;;;1.43;1.23;;;6.70;99.90;;;;;;5063066;28;20645;-86
2023/12/10 02:03:02;;;;;;;2.17;0.97;;;6.70;99.90;;;;;;5061225;28;20198;-87
2023/12/10 02:05:30;;;;;;;1.47;1.10;;;6.70;99.90;;;;;;5061857;28;20652;-84
2023/12/10 02:07:58;;;;;;;1.40;0.90;;;6.60;99.90;;;;;;5061635;28;20227;-86
2023/12/10 02:10:25;;;;;;;3.53;1.10;;;6.60;99.90;;;;;;5063071;28;20204;-86
2023/12/10 02:12:53;;;;;;;1.30;0.90;;;6.50;99.90;;;;;;5057912;28;20201;-85
2023/12/10 02:15:21;;;;;;;1.83;1.00;;;6.50;99.90;;;;;;5061890;28;20237;-86
2023/12/10 02:17:49;;;;;;;2.27;1.17;;;6.40;99.90;;;;;;5065329;28;20725;-85
2023/12/10 02:20:16;;;;;;;3.93;1.00;;;6.30;99.90;;;;;;5070121;28;20198;-85
2023/12/10 02:22:48;;;;;;;1.63;1.10;;;6.30;99.90;;;;;;5049339;28;20204;-86
2023/12/10 02:25:23;;;;;;;1.43;0.77;;;6.20;99.90;;;;;;5052622;28;20202;-86
2023/12/10 02:27:51;;;;;;;4.97;1.00;;;6.10;99.90;;;;;;5065375;28;20262;-85
2023/12/10 02:30:18;;;;;;;2.00;0.70;;;6.20;99.90;;;;;;5063322;28;20194;-85
2023/12/10 02:32:45;;;;;;;2.43;1.00;;;6.10;99.90;;;;;;5060492;28;20201;-85
2023/12/10 02:35:12;;;;;;;2.37;0.97;;;6.00;99.90;;;;;;5057645;28;20898;-87
2023/12/10 02:37:39;;;;;;;1.57;1.00;;;6.00;99.90;;;;;;5063599;28;20633;-85
2023/12/10 02:40:07;;;;;;;1.23;0.70;;;6.00;99.90;;;;;;5066325;28;20656;-85
2023/12/10 02:42:34;;;;;;;1.13;0.80;;;6.00;99.90;;;;;;5066843;28;20197;-85
2023/12/10 02:45:02;;;;;;;1.63;0.80;;;6.00;99.90;;;;;;5067093;28;20197;-85
2023/12/10 02:47:29;;;;;;;0.80;0.70;;;6.00;99.90;;;;;;5070530;28;20198;-85
2023/12/10 02:49:56;;;;;;;1.70;0.70;;;6.00;99.90;;;;;;5069535;28;20197;-85
2023/12/10 02:52:23;;;;;;;2.67;0.90;;;6.00;99.90;;;;;;5061799;28;20209;-85
2023/12/10 02:54:50;;;;;;;1.63;1.00;;;6.00;99.90;;;;;;5067621;28;20202;-85
2023/12/10 02:57:16;;;;;;;3.33;0.80;;;5.90;99.90;;;;;;5067090;28;20197;-85
2023/12/10 02:59:43;;;;;;;2.27;0.90;;;5.80;99.90;;;;;;5074669;28;20193;-85
2023/12/10 03:02:11;;;;;;;2.83;1.00;;;5.70;99.90;;;;;;5068629;28;20194;-85
2023/12/10 03:04:38;;;;;;;2.97;1.13;;;5.60;99.90;;;;;;5063775;28;20197;-85
2023/12/10 03:07:05;;;;;;;2.23;1.13;;;5.70;99.90;;;;;;5057114;28;20208;-85
2023/12/10 03:09:32;;;;;;;2.73;1.17;;;5.70;99.90;;;;;;5056636;28;20221;-85
2023/12/10 03:11:59;;;;;;;4.10;1.37;;;5.70;99.90;;;;;;5058263;28;20194;-85
2023/12/10 03:14:25;;;;;;;5.63;1.30;;;5.70;99.90;;;;;;5063357;28;20310;-85
2023/12/10 03:16:52;;;;;;;5.90;1.63;;;5.80;99.90;;;;;;5067525;28;20205;-83
2023/12/10 03:19:20;;;;;;;3.30;1.20;;;5.70;99.90;;;;;;5067218;28;20303;-85
2023/12/10 03:21:47;;;;;;;2.27;1.10;;;5.80;99.90;;;;;;5069645;28;20237;-85
2023/12/10 03:24:14;;;;;;;2.60;1.10;;;5.70;99.90;;;;;;5047993;28;20216;-85
2023/12/10 03:26:41;;;;;;;4.67;1.57;;;5.80;99.90;;;;;;5058858;28;20198;-85
2023/12/10 03:29:08;;;;;;;4.00;0.90;;;5.50;99.90;;;;;;5055263;28;20214;-85
2023/12/10 03:31:34;;;;;;;5.47;1.50;;;5.50;99.90;;;;;;5059984;28;20217;-85
2023/12/10 03:34:01;;;;;;;4.80;1.53;;;5.50;99.90;;;;;;5072065;28;20190;-85
2023/12/10 03:36:29;;;;;;;6.20;1.30;;;5.50;99.90;;;;;;5061793;28;20193;-85
2023/12/10 03:38:56;;;;;;;4.17;1.53;;;5.60;99.90;;;;;;5067367;28;20197;-85
2023/12/10 03:41:23;;;;;;;8.57;1.63;;;5.50;99.90;;;;;;5063175;28;20573;-85
2023/12/10 03:43:50;;;;;;;5.30;1.57;;;5.40;99.90;;;;;;5063105;28;20202;-85
2023/12/10 03:46:17;;;;;;;5.43;1.53;;;5.50;99.90;;;;;;5061465;28;20206;-86
2023/12/10 03:48:43;;;;;;;4.43;1.50;;;5.50;99.90;;;;;;5061229;28;20228;-85
2023/12/10 03:51:10;;;;;;;9.83;1.70;;;5.50;99.90;;;;;;5066042;28;20198;-85
2023/12/10 03:53:38;;;;;;;6.27;1.50;;;5.50;99.90;;;;;;5061620;28;20212;-85
2023/12/10 03:56:06;;;;;;;6.07;1.70;;;5.50;99.90;;;;;;5059621;28;20204;-85
2023/12/10 03:58:33;;;;;;;4.03;1.40;;;5.60;99.90;;;;;;5062910;28;20201;-87
2023/12/10 04:01:00;;;;;;;3.83;1.37;;;5.70;99.90;;;;;;5061872;28;20212;-85
2023/12/10 04:03:26;;;;;;;4.40;1.33;;;5.70;99.90;;;;;;5068753;28;20201;-86
2023/12/10 04:05:53;;;;;;;4.50;1.60;;;5.60;99.90;;;;;;5069931;28;20223;-86
2023/12/10 04:08:20;;;;;;;1.97;0.87;;;5.60;99.90;;;;;;5063022;28;20243;-86
2023/12/10 04:10:48;;;;;;;4.47;1.47;;;5.60;99.90;;;;;;5058104;28;21168;-85
2023/12/10 04:13:15;;;;;;;5.33;1.57;;;5.70;99.90;;;;;;5055589;28;20190;-85
2023/12/10 04:15:44;;;;;;;8.77;1.30;;;5.60;99.90;;;;;;5058091;28;20239;-85
2023/12/10 04:18:11;;;;;;;2.77;1.10;;;5.50;99.90;;;;;;5063427;28;20204;-85
2023/12/10 04:20:38;;;;;;;4.30;1.47;;;5.40;99.90;;;;;;5058639;28;20190;-85
2023/12/10 04:23:05;;;;;;;5.80;1.73;;;5.40;99.90;;;;;;5062350;28;20204;-86
2023/12/10 04:25:32;;;;;;;4.93;1.30;;;5.50;99.90;;;;;;5060293;28;20280;-85
2023/12/10 04:28:00;;;;;;;7.60;1.50;;;5.40;99.90;;;;;;5063181;28;20213;-84
2023/12/10 04:30:27;;;;;;;3.10;1.27;;;5.30;99.90;;;;;;5064213;28;20193;-86
2023/12/10 04:32:54;;;;;;;3.07;1.20;;;5.40;99.90;;;;;;5063686;28;20255;-85
2023/12/10 04:35:21;;;;;;;3.37;1.30;;;5.40;99.90;;;;;;5070403;28;20197;-83
2023/12/10 04:37:47;;;;;;;3.33;1.50;;;5.40;99.90;;;;;;5062509;28;20260;-85
2023/12/10 04:40:14;;;;;;;6.57;1.60;;;5.60;99.90;;;;;;5062389;28;20202;-85
2023/12/10 04:42:41;;;;;;;4.33;1.50;;;5.60;99.90;;;;;;5064840;28;21417;-85
2023/12/10 04:45:10;;;;;;;5.27;1.43;;;5.60;99.90;;;;;;5060383;28;20205;-85
2023/12/10 04:47:37;;;;;;;3.60;1.30;;;5.60;99.90;;;;;;5061130;28;20606;-86
2023/12/10 04:50:05;;;;;;;4.90;1.60;;;5.70;99.90;;;;;;5057698;28;20221;-85
2023/12/10 04:52:31;;;;;;;4.83;1.63;;;5.70;99.90;;;;;;5065268;28;20204;-85
2023/12/10 04:54:58;;;;;;;7.30;1.80;;;5.80;99.90;;;;;;5064865;28;20201;-85
2023/12/10 04:57:26;;;;;;;8.00;1.93;;;5.90;99.90;;;;;;5060449;28;20244;-86
2023/12/10 04:59:53;;;;;;;7.93;1.73;;;6.00;99.70;;;;;;5058599;28;20208;-88
2023/12/10 05:02:21;;;;;;;6.70;1.97;;;5.90;99.90;;;;;;5059763;28;20205;-85
2023/12/10 05:04:48;;;;;;;8.63;2.00;;;5.90;99.90;;;;;;5071789;28;20561;-88
2023/12/10 05:07:15;;;;;;;6.70;1.80;;;5.90;99.90;;;;;;5065775;28;20292;-88
2023/12/10 05:09:42;;;;;;;7.00;1.70;;;5.80;99.90;;;;;;5069857;28;20692;-88
2023/12/10 05:12:09;;;;;;;8.20;2.20;;;5.70;99.90;;;;;;5067243;28;20198;-88
2023/12/10 05:14:36;;;;;;;7.17;1.67;;;5.70;99.90;;;;;;5059651;28;20680;-88
2023/12/10 05:17:03;;;;;;;8.73;1.87;;;5.60;99.90;;;;;;5067392;28;20280;-86
2023/12/10 05:19:31;;;;;;;9.00;2.33;;;5.60;99.90;;;;;;5071570;28;20201;-84
2023/12/10 05:21:58;;;;;;;12.50;2.27;;;5.60;99.90;;;;;;5070460;28;20190;-85
2023/12/10 05:24:25;;;;;;;11.40;2.10;;;5.50;99.90;;;;;;5066014;28;20197;-86
2023/12/10 05:26:52;;;;;;;8.03;2.37;;;5.40;99.90;;;;;;5060522;28;20202;-85
2023/12/10 05:29:19;;;;;;;15.73;2.97;;;5.30;99.90;;;;;;5060422;28;20225;-86
2023/12/10 05:31:45;;;;;;;8.30;2.20;;;5.30;99.90;;;;;;5063247;28;20198;-85
2023/12/10 05:34:12;;;;;;;8.70;2.17;;;5.30;99.90;;;;;;5068161;28;20197;-85
2023/12/10 05:36:40;;;;;;;10.40;2.60;;;5.30;99.90;;;;;;5066506;28;20220;-85
2023/12/10 05:39:08;;;;;;;10.13;2.60;;;5.40;99.90;;;;;;5062878;28;20194;-86
2023/12/10 05:41:34;;;;;;;11.13;2.50;;;5.40;99.90;;;;;;5062117;28;20201;-85
2023/12/10 05:44:02;;;;;;;14.70;3.00;;;5.40;99.90;;;;;;5064281;28;20201;-86
2023/12/10 05:46:28;;;;;;;10.73;2.47;;;5.40;99.90;;;;;;5065594;28;20221;-85
2023/12/10 05:48:55;;;;;;;11.67;2.73;;;5.40;99.90;;;;;;5071814;28;21451;-85
2023/12/10 05:51:22;;;;;;;14.63;2.90;;;5.40;99.90;;;;;;5069311;28;20567;-85
2023/12/10 05:53:51;;;;;;;12.27;2.67;;;5.50;99.90;;;;;;5067550;28;20198;-85
2023/12/10 05:56:18;;;;;;;11.83;2.67;;;5.50;99.90;;;;;;5064062;28;20944;-85
2023/12/10 05:58:45;;;;;;;9.47;2.37;;;5.60;99.90;;;;;;5063686;28;20206;-86
2023/12/10 06:01:12;;;;;;;9.13;2.30;;;5.60;99.90;;;;;;5065462;28;20198;-85
2023/12/10 06:03:39;;;;;;;15.97;2.70;;;5.70;99.30;;;;;;5067901;28;20204;-85
2023/12/10 06:06:06;;;;;;;15.67;2.77;;;5.60;99.30;;;;;;5060683;28;20206;-86
2023/12/10 06:08:33;;;;;;;10.70;2.67;;;5.60;98.90;;;;;;5066288;28;20280;-86
2023/12/10 06:11:02;;;;;;;11.20;3.37;;;5.60;99.30;;;;;;5070316;28;20548;-86
2023/12/10 06:13:29;;;;;;;10.03;2.30;;;5.60;99.20;;;;;;5060218;28;20214;-87
2023/12/10 06:15:56;;;;;;;10.07;2.47;;;5.70;98.90;;;;;;5061150;28;20190;-86
2023/12/10 06:18:23;;;;;;;10.33;2.80;;;5.70;98.70;;;;;;5064058;28;20206;-85
2023/12/10 06:20:50;;;;;;;13.30;3.10;;;5.80;98.40;;;;;;5063853;28;20204;-85
2023/12/10 06:23:17;;;;;;;11.73;2.93;;;5.80;97.90;;;;;;5063289;28;20668;-85
2023/12/10 06:25:44;;;;;;;11.90;2.37;;;5.80;97.90;;;;;;5064658;28;20211;-86
2023/12/10 06:28:12;;;;;;;10.00;2.47;;;5.80;97.80;;;;;;5062680;28;20201;-86
2023/12/10 06:30:39;;;;;;;11.53;2.33;;;5.80;97.80;;;;;;5059179;28;20228;-86
2023/12/10 06:33:06;;;;;;;7.80;2.40;;;5.80;97.80;;;;;;5061344;28;20202;-86
2023/12/10 06:35:33;;;;;;;12.00;2.50;;;5.80;97.80;;;;;;5059972;28;20654;-87
2023/12/10 06:38:00;;;;;;;9.90;2.50;;;5.70;97.80;;;;;;5062578;28;20718;-86
2023/12/10 06:40:26;;;;;;;12.87;2.90;;;5.80;97.90;;;;;;5061734;28;20201;-86
2023/12/10 06:42:53;;;;;;;11.83;2.80;;;5.70;97.80;;;;;;5060137;28;20200;-86
2023/12/10 06:45:21;;;;;;;8.00;2.20;;;5.70;98.00;;;;;;5064378;28;20208;-86
2023/12/10 06:47:48;;;;;;;10.73;2.23;;;5.80;98.10;;;;;;5059828;28;20206;-86
2023/12/10 06:50:15;;;;;;;9.40;2.70;;;5.80;98.10;;;;;;5055235;28;20236;-86
2023/12/10 06:52:42;;;;;;;10.70;2.63;;;5.80;98.10;;;;;;5059659;28;20200;-85
2023/12/10 06:55:10;;;;;;;9.70;2.87;;;5.80;98.10;;;;;;5059319;28;20205;-86
2023/12/10 06:57:36;;;;;;;7.50;2.40;;;6.00;97.90;;;;;;5058025;28;20198;-86
2023/12/10 07:00:04;;;;;;;9.27;2.17;;;6.00;97.70;;;;;;5062274;28;20198;-86
2023/12/10 07:02:32;;;;;;;13.47;3.00;;;5.90;97.90;;;;;;5066771;28;20221;-85
2023/12/10 07:04:59;;;;;;;14.80;2.70;;;5.90;97.90;;;;;;5067151;28;20213;-85
2023/12/10 07:07:26;;;;;;;9.37;2.63;;;5.90;98.00;;;;;;5064505;28;20276;-86
2023/12/10 07:09:53;;;;;;;16.10;2.90;;;5.90;97.90;;;;;;5064389;28;20217;-85
2023/12/10 07:12:19;;;;;;;11.20;2.43;;;5.80;97.90;;;;;;5067231;28;20197;-84
2023/12/10 07:14:46;;;;;;;12.77;2.53;;;5.80;98.00;;;;;;5065203;28;20229;-85
2023/12/10 07:17:14;;;;;;;12.67;2.23;;;5.80;97.90;;;;;;5063767;28;20198;-84
2023/12/10 07:19:42;;;;;;;10.57;2.37;;;5.90;97.90;;;;;;5063702;28;20268;-84
2023/12/10 07:22:09;;;;;;;10.17;2.27;;;5.80;97.90;;;;;;5066087;28;20201;-85
2023/12/10 07:24:37;;;;;;;10.33;2.67;;;5.90;97.50;;;;;;5061608;28;20193;-92
2023/12/10 07:27:05;;;;;;;15.20;2.93;;;6.00;97.40;;;;;;5061996;28;20215;-85
2023/12/10 07:29:31;;;;;;;11.07;2.73;;;6.00;97.20;;;;;;5064144;28;20217;-87
2023/12/10 07:31:58;;;;;;;11.50;3.00;;;6.00;96.90;;;;;;5061477;28;20209;-88
2023/12/10 07:34:25;;;;;;;10.70;2.40;;;6.10;96.80;;;;;;5067683;28;20193;-87
2023/12/10 07:36:53;;;;;;;11.20;2.43;;;6.20;96.40;;;;;;5059812;28;20218;-87
2023/12/10 07:39:20;;;;;;;8.70;2.30;;;6.20;96.30;;;;;;5060168;28;20557;-84
2023/12/10 07:41:47;;;;;;;12.80;2.90;;;6.30;95.60;;;;;;5059807;28;20201;-85
2023/12/10 07:44:13;;;;;;;7.80;2.40;;;6.30;95.70;;;;;;5054875;28;20206;-86
2023/12/10 07:46:40;;;;;;;9.93;2.77;;;6.30;95.80;;;;;;5060737;28;20289;-85
2023/12/10 07:49:07;;;;;;;10.47;2.40;;;6.40;95.40;;;;;;5061984;28;20209;-87
2023/12/10 07:51:44;;;;;;;11.23;2.30;;;6.60;95.20;;;;;;5102580;27;20561;-85
2023/12/10 07:54:11;;;;;;;13.40;2.90;;;6.70;94.70;;;;;;5105687;28;20196;-86
2023/12/10 07:56:37;;;;;;;12.30;3.47;;;6.70;94.70;;;;;;5102964;28;20196;-86
2023/12/10 07:59:04;;;;;;;15.60;2.67;;;6.80;94.50;;;;;;5100115;28;20247;-86
2023/12/10 08:01:31;;;;;;;8.43;2.33;;;6.70;94.30;;;;;;5105484;28;20200;-87
2023/12/10 08:03:58;;;;;;;10.53;2.50;;;6.60;94.50;;;;;;5102203;28;20204;-87
2023/12/10 08:06:24;;;;;;;9.35;2.50;;;6.60;94.60;;;;;;5107318;28;20282;-86
2023/12/10 08:08:53;;;;;;;11.87;2.73;;;6.60;94.60;;;;;;5104214;27;20208;-87
2023/12/10 08:11:19;;;;;;;9.13;2.13;;;6.60;94.50;;;;;;5106949;28;20222;-86
2023/12/10 08:13:47;;;;;;;11.48;3.13;;;6.60;94.40;;;;;;5097375;28;20216;-86
2023/12/10 08:16:14;;;;;;;9.23;2.50;;;6.60;94.60;;;;;;5100542;28;20807;-87
2023/12/10 08:18:41;;;;;;;10.60;2.73;;;6.60;94.70;;;;;;5094416;28;20226;-86
2023/12/10 08:21:09;;;;;;;8.70;2.33;;;6.60;94.70;;;;;;5102265;28;20648;-86
2023/12/10 08:23:36;;;;;;;9.67;2.20;;;6.60;94.70;;;;;;5098911;28;20208;-86
2023/12/10 08:26:04;;;;;;;11.57;3.23;;;6.60;94.80;;;;;;5100257;28;20197;-86
2023/12/10 08:28:31;;;;;;;7.30;2.20;;;6.80;94.40;;;;;;5106931;28;20203;-87
2023/12/10 08:30:58;;;;;;;11.45;2.50;;;6.90;94.10;;;;;;5103851;28;20234;-87
2023/12/10 08:33:25;;;;;;;10.25;2.72;;;6.90;93.80;;;;;;5093178;28;20674;-87
2023/12/10 08:35:52;;;;;;;7.95;2.20;;;7.00;93.60;;;;;;5098738;28;20199;-87
2023/12/10 08:38:19;;;;;;;9.68;2.20;;;7.00;93.60;;;;;;5094584;28;20226;-87
2023/12/10 08:40:45;;;;;;;7.68;2.28;;;7.00;93.90;;;;;;5094453;28;20565;-87
2023/12/10 08:43:14;;;;;;;9.70;2.30;;;7.00;93.60;;;;;;5098317;28;20206;-87
2023/12/10 08:45:40;;;;;;;8.93;2.30;;;6.90;93.50;;;;;;5099206;28;20207;-87
2023/12/10 08:48:07;;;;;;;11.45;2.67;;;6.90;93.70;;;;;;5093824;28;20690;-86
2023/12/10 08:50:34;;;;;;;9.48;2.47;;;6.90;93.90;;;;;;5094204;28;20234;-86
2023/12/10 08:53:01;;;;;;;12.10;2.60;;;6.90;93.40;;;;;;5095655;28;20208;-86
2023/12/10 08:55:28;;;;;;;7.60;2.25;;;7.00;92.90;;;;;;5106404;28;20208;-86
2023/12/10 08:57:55;;;;;;;13.90;2.47;;;7.10;92.50;;;;;;5097422;27;20275;-87
2023/12/10 09:00:23;;;;;;;8.23;2.30;;;7.20;92.30;;;;;;5096155;28;20194;-86
2023/12/10 09:02:50;;;;;;;8.75;2.15;;;7.30;92.10;;;;;;5087285;28;20207;-86
2023/12/10 09:05:17;;;;;;;11.00;2.47;;;7.50;91.00;;;;;;5081472;28;20197;-86
2023/12/10 09:07:44;;;;;;;11.65;2.38;;;7.60;90.20;;;;;;5085101;28;20197;-87
2023/12/10 09:10:10;;;;;;;6.10;2.10;;;7.60;90.20;;;;;;5083859;28;20209;-90
2023/12/10 09:12:37;;;;;;;10.80;2.35;;;7.50;90.10;;;;;;5075939;28;20201;-87
2023/12/10 09:15:05;;;;;;;8.57;2.28;;;7.50;89.40;;;;;;5084231;28;20222;-90
2023/12/10 09:17:33;;;;;;;8.60;2.38;;;7.50;88.10;;;;;;5082055;28;20205;-87
2023/12/10 09:20:00;;;;;;;6.88;2.08;;;7.50;88.10;;;;;;5085302;28;20223;-88
2023/12/10 09:22:27;;;;;;;8.18;2.08;;;7.60;87.40;;;;;;5078777;28;20284;-89
2023/12/10 09:24:53;;;;;;;6.78;1.80;;;7.70;84.50;;;;;;5079697;28;20192;-88
2023/12/10 09:27:20;;;;;;;6.80;2.00;;;8.00;79.50;;;;;;5078580;28;20656;-86
2023/12/10 09:29:47;;;;;;;7.32;2.25;;;8.10;79.00;;;;;;5078603;28;21099;-88
2023/12/10 09:32:16;;;;;;;7.85;2.38;;;8.00;78.60;;;;;;5081808;28;20789;-87
2023/12/10 09:34:45;;;;;;;10.05;2.50;;;7.90;77.00;;;;;;5077104;28;20192;-88
2023/12/10 09:37:14;;;;;;;10.57;2.53;;;7.80;78.70;;;;;;5080626;28;20209;-87
2023/12/10 09:39:40;;;;;;;8.45;2.22;;;7.80;77.10;;;;;;5081155;28;20200;-89
2023/12/10 09:42:09;;;;;;;7.78;2.00;;;7.90;79.00;;;;;;5079304;28;20207;-94
2023/12/10 09:44:36;;;;;;;12.50;2.38;;;7.90;77.30;;;;;;5078204;28;20204;-84
2023/12/10 09:47:06;;;;;;;9.63;1.90;;;8.10;76.40;;;;;;5075113;28;20286;-84
2023/12/10 09:49:33;;;;;;;7.53;2.25;;;8.20;75.30;;;;;;5076792;28;20196;-85
2023/12/10 09:52:01;;;;;;;8.00;2.30;;;8.20;74.70;;;;;;5079747;28;20266;-86
2023/12/10 09:54:28;;;;;;;8.13;2.17;;;8.20;73.00;;;;;;5079643;28;20200;-86
2023/12/10 09:56:55;;;;;;;11.02;2.42;;;8.40;73.30;;;;;;5078915;28;20209;-88
2023/12/10 09:59:22;;;;;;;8.85;2.03;;;8.40;70.60;;;;;;5084398;28;20197;-87
2023/12/10 10:01:50;;;;;;;7.97;2.33;;;8.50;66.90;;;;;;5077291;28;20193;-84
2023/12/10 10:04:17;;;;;;;9.10;2.42;;;8.50;65.90;;;;;;5081623;28;20554;-86
2023/12/10 10:06:44;;;;;;;4.63;2.03;;;8.60;65.60;;;;;;5083775;28;20655;-84
2023/12/10 10:09:12;;;;;;;8.52;2.22;;;8.90;62.80;;;;;;5075850;28;20211;-83
2023/12/10 10:11:39;;;;;;;9.23;2.33;;;9.00;54.80;;;;;;5091929;28;20220;-88
2023/12/10 10:14:07;;;;;;;9.18;2.20;;;9.10;53.80;;;;;;5080444;28;20220;-86
2023/12/10 10:16:34;;;;;;;7.35;2.15;;;9.40;53.30;;;;;;5085935;28;20209;-85
2023/12/10 10:19:01;;;;;;;9.10;2.30;;;9.40;49.80;;;;;;5077618;28;20229;-84
2023/12/10 10:21:28;;;;;;;7.22;2.30;;;9.30;48.30;;;;;;5086089;28;20282;-85
2023/12/10 10:23:55;;;;;;;9.38;2.30;;;9.30;47.70;;;;;;5081499;28;20209;-87
2023/12/10 10:26:24;;;;;;;6.93;2.13;;;9.30;47.80;;;;;;5077980;28;20565;-88
2023/12/10 10:28:52;;;;;;;9.05;2.15;;;9.40;47.80;;;;;;5083405;28;20197;-88
2023/12/10 10:31:20;;;;;;;7.38;2.10;;;9.60;46.20;;;;;;5080215;28;20220;-88
2023/12/10 10:33:47;;;;;;;7.90;2.10;;;9.80;43.70;;;;;;5076915;28;20197;-88
2023/12/10 10:36:19;;;;;;;7.38;2.30;;;10.00;39.60;;;;;;5080778;28;20209;-88
2023/12/10 10:38:46;;;;;;;8.52;2.10;;;10.10;39.40;;;;;;5083152;28;20227;-89
2023/12/10 10:41:17;;;;;;;8.27;2.72;;;10.30;39.60;;;;;;5092660;28;20204;-89
2023/12/10 10:43:48;;;;;;;6.28;2.00;;;10.20;40.50;;;;;;5082182;28;20208;-89
2023/12/10 10:46:21;;;;;;;7.97;2.45;;;10.30;37.60;;;;;;5084863;28;20552;-89
2023/12/10 10:48:52;;;;;;;8.70;2.53;;;10.40;37.80;;;;;;5082431;28;20189;-89
2023/12/10 10:51:22;;;;;;;4.97;1.90;;;10.30;37.80;;;;;;5085593;28;20217;-89
2023/12/10 10:53:49;;;;;;;8.93;2.30;;;10.20;37.80;;;;;;5096145;28;20197;-88
2023/12/10 10:56:17;;;;;;;9.13;2.10;;;9.90;39.80;;;;;;5095074;28;20197;-87
2023/12/10 10:58:46;;;;;;;5.65;2.10;;;9.60;41.00;;;;;;5088372;28;20288;-88
2023/12/10 11:01:38;;;;;;;7.30;1.98;;;9.50;44.40;;;;;;5078940;28;20233;-88
2023/12/10 11:04:06;;;;;;;5.30;2.10;;;9.50;44.60;;;;;;5086130;28;20641;-88
2023/12/10 11:06:35;;;;;;;9.02;2.25;;;9.70;43.80;;;;;;5079748;28;20203;-89
2023/12/10 11:09:02;;;;;;;7.50;2.50;;;9.50;44.20;;;;;;5078213;28;20201;-88
2023/12/10 11:11:29;;;;;;;6.20;2.13;;;9.70;46.80;;;;;;5076471;28;20323;-88
2023/12/10 11:13:57;;;;;;;8.60;2.47;;;9.70;45.10;;;;;;5084223;28;20226;-89
2023/12/10 11:16:26;;;;;;;8.68;2.40;;;9.70;43.60;;;;;;5080773;28;20200;-88
2023/12/10 11:18:53;;;;;;;26.80;16.23;;;9.50;43.80;;;;;;5084015;28;20204;-88
2023/12/10 11:21:21;;;;;;;26.00;13.45;;;9.30;47.80;;;;;;5080968;28;20204;-91
2023/12/10 11:23:48;;;;;;;6.97;2.30;;;9.10;47.60;;;;;;5075431;28;20198;-87
2023/12/10 11:26:15;;;;;;;5.35;2.20;;;9.00;50.70;;;;;;5085539;28;20219;-88
2023/12/10 11:28:42;;;;;;;6.10;2.10;;;8.80;52.30;;;;;;5082895;28;20205;-89
2023/12/10 11:31:11;;;;;;;6.32;2.10;;;8.70;53.80;;;;;;5074976;28;20595;-91
2023/12/10 11:33:40;;;;;;;8.02;2.10;;;8.70;56.10;;;;;;5082282;28;20303;-90
2023/12/10 11:36:08;;;;;;;9.70;1.98;;;8.70;56.90;;;;;;5078753;28;20227;-89
2023/12/10 11:38:35;;;;;;;5.45;2.03;;;8.80;54.30;;;;;;5076614;28;20197;-88
2023/12/10 11:41:03;;;;;;;8.50;2.13;;;8.70;57.10;;;;;;5077225;28;20286;-87
2023/12/10 11:43:30;;;;;;;9.02;2.33;;;8.70;58.00;;;;;;5077158;28;20224;-88
2023/12/10 11:45:57;;;;;;;7.65;2.20;;;8.70;57.90;;;;;;5082863;28;20197;-87
2023/12/10 11:48:25;;;;;;;5.95;1.95;;;8.70;58.00;;;;;;5080938;28;20219;-88
2023/12/10 11:50:52;;;;;;;4.47;1.80;;;8.80;57.20;;;;;;5083515;28;20884;-83
2023/12/10 11:53:19;;;;;;;10.60;2.10;;;8.70;57.40;;;;;;5080431;28;20287;-88
2023/12/10 11:55:48;;;;;;;5.93;1.85;;;8.70;56.20;;;;;;5067604;28;20203;-89
2023/12/10 11:58:15;;;;;;;10.93;5.10;;;8.60;59.10;;;;;;5080593;28;21116;-89
2023/12/10 12:00:57;;;;;;;104.15;68.55;;;8.60;60.70;;;;;;5079122;28;20227;-89
2023/12/10 12:03:25;;;;;;;7.10;2.58;;;8.80;60.90;;;;;;5081313;28;20280;-88
2023/12/10 12:05:53;;;;;;;5.28;1.80;;;9.00;58.40;;;;;;5088682;28;20285;-88
2023/12/10 12:08:20;;;;;;;7.10;1.95;;;8.90;57.50;;;;;;5099477;28;20281;-89
2023/12/10 12:10:50;;;;;;;6.68;2.10;;;8.90;57.60;;;;;;5091291;28;20205;-89
2023/12/10 12:13:17;;;;;;;6.65;1.83;;;8.80;57.40;;;;;;5073051;28;20632;-89
2023/12/10 12:15:46;;;;;;;6.70;1.98;;;8.80;60.40;;;;;;5082885;28;20560;-89
2023/12/10 12:18:13;;;;;;;4.15;1.70;;;8.80;58.20;;;;;;5080589;28;20192;-89
2023/12/10 12:20:41;;;;;;;7.85;2.00;;;8.80;60.00;;;;;;5079748;28;20258;-91
2023/12/10 12:23:09;;;;;;;8.00;2.25;;;8.80;58.50;;;;;;5074445;28;20201;-90
2023/12/10 12:25:37;;;;;;;6.45;2.15;;;8.80;58.70;;;;;;5076063;28;20228;-86
2023/12/10 12:28:06;;;;;;;6.35;2.08;;;8.80;59.20;;;;;;5076487;28;20216;-89
2023/12/10 12:30:33;;;;;;;6.50;1.90;;;8.90;57.60;;;;;;5079656;28;20208;-86
2023/12/10 12:33:00;;;;;;;8.05;2.25;;;9.00;58.20;;;;;;5078596;28;20566;-84
2023/12/10 12:35:27;;;;;;;7.55;2.38;;;9.00;57.60;;;;;;5084719;28;20226;-84
2023/12/10 12:37:56;;;;;;;10.43;2.08;;;9.00;59.10;;;;;;5085403;28;20203;-86
2023/12/10 12:40:23;;;;;;;7.18;2.13;;;9.00;59.50;;;;;;5088825;28;20193;-85
2023/12/10 12:42:50;;;;;;;9.05;2.83;;;8.90;57.10;;;;;;5085012;28;20558;-85
2023/12/10 12:45:18;;;;;;;4.85;1.83;;;8.90;58.00;;;;;;5085175;28;20207;-86
2023/12/10 12:47:45;;;;;;;8.13;2.33;;;8.90;58.00;;;;;;5085458;28;20230;-85
2023/12/10 12:50:12;;;;;;;7.22;2.08;;;8.90;58.30;;;;;;5084738;28;20215;-86
2023/12/10 12:52:39;;;;;;;9.30;2.13;;;8.90;59.20;;;;;;5095888;28;20227;-86
2023/12/10 12:55:08;;;;;;;7.00;2.03;;;8.80;59.90;;;;;;5085959;28;20641;-86